Time;durP1;ratioP1;P1;durP2;ratioP2;P2;SDS_P1;SDS_P2;PMS_P1;PMS_P2;Temp;Humidity;BMP_temperature;BMP_pressure;BME280_temperature;BME280_humidity;BME280_pressure;Samples;Min_cycle;Max_cycle;Signal;HPM_P1;HPM_P2
2022/04/08 00:01:54;;;;;;;8.20;5.15;;;12.40;54.60;;;;;;5073559;28;20021;-58
2022/04/08 00:04:19;;;;;;;9.95;7.30;;;12.30;54.70;;;;;;5070837;28;20043;-58
2022/04/08 00:06:45;;;;;;;8.40;7.05;;;12.20;55.60;;;;;;5073113;28;20483;-59
2022/04/08 00:09:10;;;;;;;11.07;6.25;;;12.20;57.20;;;;;;5070396;28;20029;-58
2022/04/08 00:11:36;;;;;;;8.02;6.55;;;12.20;58.40;;;;;;5074992;28;20043;-58
2022/04/08 00:14:02;;;;;;;10.30;6.78;;;12.10;59.30;;;;;;5073322;28;20408;-58
2022/04/08 00:16:28;;;;;;;10.45;6.40;;;12.10;60.20;;;;;;5073104;28;20040;-58
2022/04/08 00:18:53;;;;;;;7.43;6.35;;;12.10;60.30;;;;;;5068275;28;20024;-58
2022/04/08 00:21:19;;;;;;;7.97;7.10;;;12.00;60.10;;;;;;5074958;28;20055;-58
2022/04/08 00:23:45;;;;;;;8.05;6.43;;;12.00;60.10;;;;;;5074939;28;20032;-59
2022/04/08 00:26:11;;;;;;;8.63;6.50;;;11.90;60.90;;;;;;5074957;28;20021;-58
2022/04/08 00:28:37;;;;;;;8.07;6.53;;;11.90;62.30;;;;;;5067622;28;20439;-58
2022/04/08 00:31:04;;;;;;;7.75;6.18;;;11.80;62.50;;;;;;5074687;28;20108;-58
2022/04/08 00:33:33;;;;;;;9.25;5.95;;;11.80;63.20;;;;;;5073643;28;20430;-58
2022/04/08 00:36:07;;;;;;;8.38;5.88;;;11.70;64.20;;;;;;5073447;28;20029;-58
2022/04/08 00:38:33;;;;;;;8.30;5.18;;;11.70;64.60;;;;;;5063526;28;20029;-58
2022/04/08 00:40:59;;;;;;;7.07;5.00;;;11.70;65.40;;;;;;5074339;28;20494;-58
2022/04/08 00:43:33;;;;;;;9.15;5.00;;;11.70;66.20;;;;;;5064853;28;20032;-58
2022/04/08 00:45:59;;;;;;;7.05;4.85;;;11.60;67.10;;;;;;5065543;28;20025;-58
2022/04/08 00:48:28;;;;;;;6.65;5.28;;;11.60;67.10;;;;;;5058369;28;20086;-58
2022/04/08 00:50:54;;;;;;;6.28;4.78;;;11.50;67.30;;;;;;5071662;28;20543;-58
2022/04/08 00:53:21;;;;;;;8.43;5.28;;;11.50;67.20;;;;;;5072963;28;20024;-58
2022/04/08 00:55:46;;;;;;;7.45;5.90;;;11.50;67.30;;;;;;5072273;28;20029;-58
2022/04/08 00:58:13;;;;;;;8.73;6.30;;;11.40;67.20;;;;;;5074133;28;20043;-58
2022/04/08 01:00:40;;;;;;;8.07;5.70;;;11.40;67.60;;;;;;5074047;28;20020;-58
2022/04/08 01:03:05;;;;;;;7.40;5.82;;;11.30;67.90;;;;;;5074198;28;20109;-58
2022/04/08 01:05:32;;;;;;;5.95;5.13;;;11.30;68.00;;;;;;5072733;28;20538;-58
2022/04/08 01:07:57;;;;;;;6.43;5.63;;;11.30;67.70;;;;;;5063401;28;20099;-58
2022/04/08 01:10:23;;;;;;;9.32;5.65;;;11.20;67.80;;;;;;5067018;28;20071;-58
2022/04/08 01:12:49;;;;;;;7.90;6.05;;;11.10;67.60;;;;;;5073968;28;20434;-58
2022/04/08 01:15:20;;;;;;;9.80;6.63;;;11.00;67.50;;;;;;5073710;28;20025;-58
2022/04/08 01:17:46;;;;;;;8.85;6.15;;;11.00;67.80;;;;;;5066920;28;20033;-58
2022/04/08 01:20:12;;;;;;;7.13;5.78;;;11.00;67.80;;;;;;5067703;28;20441;-58
2022/04/08 01:22:38;;;;;;;6.18;5.57;;;10.90;67.80;;;;;;5072317;28;20024;-58
2022/04/08 01:25:08;;;;;;;5.90;5.30;;;10.90;67.70;;;;;;5073461;28;20024;-58
2022/04/08 01:27:36;;;;;;;6.22;5.00;;;10.90;68.30;;;;;;5067312;28;20530;-58
2022/04/08 01:30:07;;;;;;;6.53;5.60;;;10.80;67.60;;;;;;5068069;28;20115;-58
2022/04/08 01:32:33;;;;;;;7.30;5.78;;;10.70;67.60;;;;;;5072918;28;20074;-57
2022/04/08 01:34:59;;;;;;;6.70;5.53;;;10.70;67.50;;;;;;5073284;28;20074;-58
2022/04/08 01:37:34;;;;;;;8.27;5.70;;;10.70;67.40;;;;;;5073290;28;20507;-58
2022/04/08 01:40:00;;;;;;;8.75;5.88;;;10.60;67.30;;;;;;5072314;28;20021;-58
2022/04/08 01:42:26;;;;;;;9.38;5.78;;;10.60;67.50;;;;;;5072263;28;20487;-58
2022/04/08 01:44:53;;;;;;;9.18;6.28;;;10.60;67.10;;;;;;5064326;28;20039;-58
2022/04/08 01:47:19;;;;;;;6.88;6.03;;;10.70;67.00;;;;;;5072803;28;20472;-58
2022/04/08 01:49:45;;;;;;;10.45;6.15;;;10.70;66.90;;;;;;5067826;28;20472;-58
2022/04/08 01:52:11;;;;;;;9.07;6.07;;;10.70;66.90;;;;;;5072966;28;20103;-58
2022/04/08 01:54:40;;;;;;;7.38;5.95;;;10.80;66.90;;;;;;5063589;28;20128;-58
2022/04/08 01:57:06;;;;;;;7.55;6.43;;;10.80;67.10;;;;;;5072950;28;20499;-58
2022/04/08 01:59:31;;;;;;;8.95;6.00;;;10.80;67.20;;;;;;5071414;28;20024;-58
2022/04/08 02:02:00;;;;;;;7.32;6.28;;;10.80;67.10;;;;;;5071870;28;20027;-58
2022/04/08 02:04:28;;;;;;;7.30;5.85;;;10.90;67.20;;;;;;5072808;28;20020;-58
2022/04/08 02:06:54;;;;;;;7.03;6.32;;;10.90;67.80;;;;;;5065679;28;20055;-59
2022/04/08 02:09:20;;;;;;;8.35;7.32;;;10.90;68.20;;;;;;5071622;28;20051;-59
2022/04/08 02:11:45;;;;;;;8.35;7.53;;;10.90;68.50;;;;;;5071603;28;20033;-59
2022/04/08 02:14:11;;;;;;;8.23;7.43;;;10.90;68.80;;;;;;5071927;28;20068;-59
2022/04/08 02:16:37;;;;;;;7.97;6.95;;;10.90;69.20;;;;;;5072690;28;20119;-59
2022/04/08 02:19:05;;;;;;;10.02;7.22;;;10.90;69.30;;;;;;5068896;28;20020;-58
2022/04/08 02:21:32;;;;;;;12.25;7.60;;;10.90;69.50;;;;;;5072956;28;20037;-59
2022/04/08 02:24:03;;;;;;;9.52;7.88;;;10.90;69.80;;;;;;5072558;28;20052;-59
2022/04/08 02:26:29;;;;;;;9.03;8.07;;;10.80;70.10;;;;;;5070338;28;20012;-59
2022/04/08 02:28:54;;;;;;;10.13;8.13;;;10.80;70.20;;;;;;5072048;28;20295;-59
2022/04/08 02:31:20;;;;;;;8.70;7.63;;;10.80;71.20;;;;;;5072188;28;20025;-59
2022/04/08 02:33:45;;;;;;;9.15;7.40;;;10.70;70.80;;;;;;5071562;28;20021;-59
2022/04/08 02:36:11;;;;;;;10.05;8.32;;;10.60;71.10;;;;;;5066525;28;20079;-59
2022/04/08 02:38:37;;;;;;;10.05;8.63;;;10.60;71.40;;;;;;5072423;28;20058;-59
2022/04/08 02:41:03;;;;;;;10.32;8.50;;;10.50;71.70;;;;;;5072453;28;20079;-59
2022/04/08 02:43:28;;;;;;;10.52;8.15;;;10.50;71.90;;;;;;5063304;28;20048;-58
2022/04/08 02:45:54;;;;;;;9.93;8.40;;;10.60;72.20;;;;;;5062223;28;20074;-59
2022/04/08 02:48:19;;;;;;;8.77;7.88;;;10.60;72.20;;;;;;5063557;28;20060;-59
2022/04/08 02:50:45;;;;;;;11.68;8.50;;;10.60;72.20;;;;;;5072252;28;20028;-59
2022/04/08 02:53:11;;;;;;;11.07;8.57;;;10.60;72.30;;;;;;5064032;28;20036;-59
2022/04/08 02:55:37;;;;;;;8.95;8.05;;;10.70;72.40;;;;;;5063607;28;20102;-59
2022/04/08 02:58:03;;;;;;;10.68;7.97;;;10.70;72.60;;;;;;5072575;28;20029;-59
2022/04/08 03:00:29;;;;;;;9.68;8.50;;;10.70;72.60;;;;;;5070755;28;20070;-59
2022/04/08 03:02:54;;;;;;;11.00;9.10;;;10.70;72.70;;;;;;5071695;28;20033;-59
2022/04/08 03:05:20;;;;;;;11.00;8.50;;;10.80;72.70;;;;;;5072244;28;20120;-59
2022/04/08 03:07:46;;;;;;;9.30;8.30;;;10.70;72.70;;;;;;5057516;28;20059;-59
2022/04/08 03:10:12;;;;;;;10.02;7.68;;;10.70;72.80;;;;;;5055843;28;20079;-59
2022/04/08 03:12:38;;;;;;;10.98;8.55;;;10.70;72.90;;;;;;5071948;28;20039;-59
2022/04/08 03:15:04;;;;;;;9.02;7.88;;;10.70;73.00;;;;;;5058202;28;20028;-59
2022/04/08 03:17:30;;;;;;;10.75;8.95;;;10.70;73.20;;;;;;5070803;28;20036;-59
2022/04/08 03:19:57;;;;;;;9.88;8.15;;;10.60;73.30;;;;;;5072075;28;20499;-59
2022/04/08 03:22:23;;;;;;;9.50;8.32;;;10.60;73.40;;;;;;5072285;28;20083;-59
2022/04/08 03:24:52;;;;;;;9.90;8.27;;;10.50;73.60;;;;;;5068341;28;20052;-58
2022/04/08 03:27:18;;;;;;;10.18;8.60;;;10.50;73.80;;;;;;5070915;28;20040;-59
2022/04/08 03:29:44;;;;;;;10.65;8.40;;;10.50;74.10;;;;;;5072021;28;20025;-58
2022/04/08 03:32:10;;;;;;;10.10;8.45;;;10.40;74.30;;;;;;5072293;28;20122;-59
2022/04/08 03:34:36;;;;;;;9.77;7.75;;;10.40;74.60;;;;;;5070173;28;20036;-59
2022/04/08 03:37:02;;;;;;;11.07;7.72;;;10.40;74.70;;;;;;5063595;28;20048;-59
2022/04/08 03:39:28;;;;;;;7.90;7.10;;;10.30;74.70;;;;;;5071804;28;20032;-59
2022/04/08 03:41:54;;;;;;;8.18;7.30;;;10.30;74.80;;;;;;5071783;28;20162;-59
2022/04/08 03:44:20;;;;;;;11.55;9.75;;;10.30;75.10;;;;;;5071316;28;20028;-59
2022/04/08 03:46:46;;;;;;;8.98;7.78;;;10.20;75.20;;;;;;5075369;28;20039;-59
2022/04/08 03:49:14;;;;;;;8.98;8.07;;;10.30;75.30;;;;;;5070902;28;20041;-59
2022/04/08 03:51:44;;;;;;;10.20;8.15;;;10.30;75.30;;;;;;5075564;28;20131;-59
2022/04/08 03:54:10;;;;;;;9.95;8.73;;;10.30;75.20;;;;;;5075512;28;20526;-59
2022/04/08 03:56:36;;;;;;;8.60;7.53;;;10.40;75.30;;;;;;5075190;28;20545;-59
2022/04/08 03:59:02;;;;;;;9.07;7.45;;;10.40;75.10;;;;;;5075279;28;20048;-59
2022/04/08 04:01:28;;;;;;;9.27;7.90;;;10.50;74.90;;;;;;5064385;28;20071;-58
2022/04/08 04:03:53;;;;;;;9.90;7.72;;;10.50;74.90;;;;;;5075116;28;20029;-59
2022/04/08 04:06:19;;;;;;;8.13;7.32;;;10.60;74.70;;;;;;5074118;28;20368;-59
2022/04/08 04:08:45;;;;;;;8.15;7.35;;;10.60;74.40;;;;;;5071489;28;20029;-59
2022/04/08 04:11:16;;;;;;;8.90;6.78;;;10.60;74.10;;;;;;5072897;28;20056;-59
2022/04/08 04:13:42;;;;;;;8.25;7.35;;;10.60;74.10;;;;;;5070420;28;20056;-59
2022/04/08 04:16:08;;;;;;;8.50;7.43;;;10.60;74.20;;;;;;5073038;28;20098;-59
2022/04/08 04:18:34;;;;;;;8.73;6.70;;;10.60;74.10;;;;;;5072341;28;20025;-59
2022/04/08 04:20:59;;;;;;;12.35;7.35;;;10.60;73.90;;;;;;5072787;28;20552;-59
2022/04/08 04:23:25;;;;;;;8.55;7.22;;;10.60;73.80;;;;;;5060630;28;20035;-59
2022/04/08 04:25:50;;;;;;;9.40;7.68;;;10.60;73.70;;;;;;5074785;28;20020;-59
2022/04/08 04:28:16;;;;;;;6.85;6.15;;;10.70;73.60;;;;;;5074884;28;20085;-59
2022/04/08 04:30:42;;;;;;;8.43;6.95;;;10.70;73.50;;;;;;5074468;28;20087;-59
2022/04/08 04:33:08;;;;;;;7.85;6.20;;;10.70;73.40;;;;;;5074584;28;20093;-59
2022/04/08 04:35:37;;;;;;;8.18;6.85;;;10.70;73.30;;;;;;5068818;28;20051;-59
2022/04/08 04:38:03;;;;;;;9.50;7.22;;;10.70;73.00;;;;;;5066978;28;20032;-59
2022/04/08 04:40:29;;;;;;;7.55;6.78;;;10.70;72.80;;;;;;5062868;28;20021;-59
2022/04/08 04:42:55;;;;;;;8.48;6.35;;;10.70;72.60;;;;;;5062706;28;20079;-59
2022/04/08 04:45:24;;;;;;;7.53;6.65;;;10.80;72.50;;;;;;5062370;28;20158;-59
2022/04/08 04:47:50;;;;;;;6.47;5.88;;;10.90;72.10;;;;;;5056946;28;20729;-59
2022/04/08 04:50:16;;;;;;;8.43;6.63;;;10.90;71.60;;;;;;5060818;28;20049;-58
2022/04/08 04:52:41;;;;;;;7.03;6.32;;;10.90;71.40;;;;;;5066898;28;20039;-59
2022/04/08 04:55:08;;;;;;;7.57;6.07;;;10.90;71.00;;;;;;5069473;28;20476;-58
2022/04/08 04:57:34;;;;;;;8.18;6.78;;;10.90;70.60;;;;;;5068323;28;20033;-59
2022/04/08 05:00:00;;;;;;;9.35;6.88;;;11.00;70.70;;;;;;5074368;28;20029;-59
2022/04/08 05:02:25;;;;;;;8.13;7.32;;;11.00;70.70;;;;;;5060161;28;20369;-59
2022/04/08 05:04:51;;;;;;;9.20;6.80;;;11.10;70.80;;;;;;5070505;28;20036;-58
2022/04/08 05:07:17;;;;;;;8.30;6.25;;;11.20;70.20;;;;;;5060536;28;20467;-58
2022/04/08 05:09:43;;;;;;;8.82;7.30;;;11.30;69.70;;;;;;5063928;28;20028;-59
2022/04/08 05:12:09;;;;;;;7.10;6.40;;;11.30;69.80;;;;;;5065379;28;20103;-58
2022/04/08 05:14:35;;;;;;;9.93;7.43;;;11.40;69.70;;;;;;5064638;28;20033;-58
2022/04/08 05:17:01;;;;;;;8.25;6.60;;;11.30;69.50;;;;;;5065616;28;20115;-58
2022/04/08 05:19:27;;;;;;;8.23;6.78;;;11.30;69.90;;;;;;5063819;28;20100;-58
2022/04/08 05:21:52;;;;;;;7.63;6.10;;;11.40;69.70;;;;;;5063294;28;20099;-58
2022/04/08 05:24:21;;;;;;;6.70;6.00;;;11.60;69.40;;;;;;5064260;28;20446;-58
2022/04/08 05:26:47;;;;;;;8.23;6.53;;;11.80;68.90;;;;;;5063037;28;20029;-58
2022/04/08 05:29:12;;;;;;;8.25;6.30;;;11.90;68.60;;;;;;5065688;28;20403;-58
2022/04/08 05:31:39;;;;;;;6.78;6.05;;;12.00;67.70;;;;;;5064956;28;20399;-58
2022/04/08 05:34:04;;;;;;;7.15;6.30;;;12.00;67.70;;;;;;5065289;28;20036;-59
2022/04/08 05:36:30;;;;;;;7.03;5.82;;;12.10;67.80;;;;;;5061683;28;20488;-58
2022/04/08 05:38:56;;;;;;;7.10;6.22;;;12.10;67.70;;;;;;5057048;28;20033;-59
2022/04/08 05:41:21;;;;;;;8.02;6.60;;;12.20;67.80;;;;;;5061143;28;20032;-58
2022/04/08 05:43:47;;;;;;;9.23;6.35;;;12.40;68.40;;;;;;5066492;28;20091;-58
2022/04/08 05:46:14;;;;;;;7.15;6.45;;;12.80;67.80;;;;;;5070048;28;20027;-59
2022/04/08 05:48:40;;;;;;;7.80;6.65;;;13.30;66.50;;;;;;5064125;28;20050;-59
2022/04/08 05:51:05;;;;;;;8.88;7.05;;;13.70;65.60;;;;;;5062209;28;20591;-59
2022/04/08 05:53:31;;;;;;;7.90;6.88;;;14.00;64.90;;;;;;5064778;28;20025;-58
2022/04/08 05:55:58;;;;;;;7.45;6.65;;;14.30;64.40;;;;;;5058479;28;20077;-59
2022/04/08 05:58:24;;;;;;;7.78;6.97;;;14.50;63.80;;;;;;5068705;28;20020;-59
2022/04/08 06:00:50;;;;;;;11.70;8.13;;;14.50;63.20;;;;;;5059889;28;20119;-58
2022/04/08 06:03:15;;;;;;;8.40;7.47;;;14.40;62.80;;;;;;5057419;28;20096;-59
2022/04/08 06:05:41;;;;;;;9.35;8.10;;;14.40;62.60;;;;;;5056753;28;20025;-58
2022/04/08 06:08:07;;;;;;;11.25;7.82;;;14.30;62.30;;;;;;5050299;28;20032;-59
2022/04/08 06:10:33;;;;;;;10.57;8.18;;;14.20;62.70;;;;;;5053039;28;20110;-59
2022/04/08 06:12:59;;;;;;;8.32;6.65;;;14.20;62.60;;;;;;5057830;28;20505;-59
2022/04/08 06:15:26;;;;;;;9.10;8.02;;;14.10;62.40;;;;;;5062114;28;20029;-60
2022/04/08 06:17:51;;;;;;;10.07;7.40;;;14.10;62.40;;;;;;5056834;28;20032;-60
2022/04/08 06:20:18;;;;;;;12.02;8.07;;;14.00;62.30;;;;;;5058928;28;20453;-58
2022/04/08 06:22:44;;;;;;;9.38;8.38;;;13.90;62.40;;;;;;5063089;28;20025;-58
2022/04/08 06:25:12;;;;;;;11.75;8.75;;;13.90;62.60;;;;;;5063925;28;20032;-57
2022/04/08 06:27:38;;;;;;;9.65;8.65;;;13.80;62.40;;;;;;5061738;28;20045;-57
2022/04/08 06:30:09;;;;;;;11.40;10.20;;;13.70;62.40;;;;;;5064853;28;20032;-58
2022/04/08 06:32:35;;;;;;;;;;;13.70;62.70;;;;;;5065277;28;20117;-58
2022/04/08 06:35:00;;;;;;;10.43;8.88;;;13.60;62.90;;;;;;5047787;28;19954;-57
2022/04/08 06:37:29;;;;;;;10.73;9.05;;;13.60;63.00;;;;;;5046527;28;20511;-58
2022/04/08 06:39:56;;;;;;;13.05;10.00;;;13.60;63.70;;;;;;5058667;28;20033;-60
2022/04/08 06:42:24;;;;;;;13.15;9.82;;;13.70;63.00;;;;;;5064446;28;20082;-57
2022/04/08 06:44:50;;;;;;;13.65;10.57;;;13.80;62.80;;;;;;5055559;28;20032;-57
2022/04/08 06:47:16;;;;;;;12.57;9.60;;;13.90;62.50;;;;;;5050842;28;20032;-58
2022/04/08 06:49:44;;;;;;;11.63;10.32;;;14.00;62.60;;;;;;5055145;28;20025;-58
2022/04/08 06:52:11;;;;;;;14.10;10.00;;;14.10;62.60;;;;;;5052813;28;20036;-58
2022/04/08 06:54:37;;;;;;;12.88;10.45;;;14.20;62.40;;;;;;5053890;28;20041;-58
2022/04/08 06:57:02;;;;;;;13.93;10.27;;;14.30;62.20;;;;;;5046266;28;20503;-57
2022/04/08 06:59:28;;;;;;;13.85;10.27;;;14.40;62.00;;;;;;5047056;28;20063;-57
2022/04/08 07:01:53;;;;;;;14.75;11.02;;;14.40;61.80;;;;;;5052733;28;20745;-57
2022/04/08 07:04:19;;;;;;;13.25;10.18;;;14.50;61.80;;;;;;5051307;28;20560;-58
2022/04/08 07:06:44;;;;;;;13.52;11.05;;;14.50;61.80;;;;;;5050472;28;20110;-57
2022/04/08 07:09:11;;;;;;;14.98;10.55;;;14.60;61.50;;;;;;5046603;28;20116;-57
2022/04/08 07:11:36;;;;;;;12.05;9.73;;;14.60;61.40;;;;;;5048539;28;20055;-57
2022/04/08 07:14:02;;;;;;;12.68;11.27;;;14.70;61.30;;;;;;5051738;28;20119;-58
2022/04/08 07:16:28;;;;;;;11.30;9.95;;;14.70;61.10;;;;;;5052687;28;20036;-58
2022/04/08 07:18:53;;;;;;;10.90;9.80;;;14.70;61.30;;;;;;5056922;28;20037;-58
2022/04/08 07:21:19;;;;;;;12.75;10.65;;;14.80;61.30;;;;;;5059165;28;20813;-58
2022/04/08 07:23:44;;;;;;;11.23;9.60;;;14.80;60.80;;;;;;5051679;28;20033;-58
2022/04/08 07:26:11;;;;;;;11.65;9.48;;;14.80;60.30;;;;;;5047805;28;20029;-61
2022/04/08 07:28:36;;;;;;;13.05;10.75;;;14.80;60.30;;;;;;5050359;28;20077;-60
2022/04/08 07:31:02;;;;;;;17.38;11.05;;;14.80;60.40;;;;;;5047894;28;20028;-60
2022/04/08 07:33:27;;;;;;;14.30;11.25;;;14.80;60.40;;;;;;5044858;28;20503;-59
2022/04/08 07:35:53;;;;;;;12.85;11.40;;;14.80;61.20;;;;;;5037982;28;20039;-58
2022/04/08 07:38:18;;;;;;;14.85;11.95;;;14.80;61.00;;;;;;5052412;28;20130;-58
2022/04/08 07:40:44;;;;;;;13.73;11.40;;;14.90;61.10;;;;;;5052103;28;20670;-58
2022/04/08 07:43:10;;;;;;;15.48;10.95;;;14.90;60.80;;;;;;5040448;28;20480;-58
2022/04/08 07:45:36;;;;;;;17.90;12.70;;;15.00;61.00;;;;;;5036470;28;20039;-59
2022/04/08 07:48:01;;;;;;;14.48;11.52;;;15.10;60.90;;;;;;5046504;28;21422;-57
2022/04/08 07:50:28;;;;;;;14.52;12.40;;;15.20;60.90;;;;;;5047803;28;20037;-57
2022/04/08 07:52:54;;;;;;;13.90;12.02;;;15.30;61.00;;;;;;5040483;28;20035;-59
2022/04/08 07:55:24;;;;;;;15.77;11.43;;;15.30;60.80;;;;;;5048966;28;20048;-58
2022/04/08 07:57:52;;;;;;;13.55;11.30;;;15.40;61.00;;;;;;5050093;28;20037;-58
2022/04/08 08:00:19;;;;;;;13.45;11.43;;;15.40;61.10;;;;;;5041887;28;20048;-58
2022/04/08 08:02:47;;;;;;;13.45;12.05;;;15.50;61.10;;;;;;5047877;28;20825;-59
2022/04/08 08:05:57;;;;;;;15.30;11.15;;;15.50;61.10;;;;;;5045664;28;20043;-59
2022/04/08 08:08:22;;;;;;;14.40;12.02;;;15.50;60.90;;;;;;5042555;28;20040;-58
2022/04/08 08:10:49;;;;;;;15.45;12.20;;;15.40;60.70;;;;;;5039695;28;20061;-58
2022/04/08 08:13:16;;;;;;;15.10;12.68;;;15.40;60.30;;;;;;5043003;28;20036;-58
2022/04/08 08:15:57;;;;;;;16.77;11.88;;;15.40;60.20;;;;;;5046697;28;20051;-58
2022/04/08 08:18:28;;;;;;;14.20;11.13;;;15.30;60.20;;;;;;5032267;28;20049;-57
2022/04/08 08:20:54;;;;;;;12.60;10.57;;;15.30;60.10;;;;;;5039545;28;20040;-57
2022/04/08 08:23:21;;;;;;;14.35;11.60;;;15.20;60.00;;;;;;5029969;28;20028;-58
2022/04/08 08:25:49;;;;;;;15.18;11.80;;;15.00;59.90;;;;;;5042821;28;20044;-58
2022/04/08 08:28:15;;;;;;;12.55;11.23;;;14.90;60.10;;;;;;5040231;28;20494;-59
2022/04/08 08:30:47;;;;;;;10.75;9.65;;;14.90;60.70;;;;;;5039325;28;20060;-60
2022/04/08 08:33:16;;;;;;;15.32;10.52;;;14.90;61.00;;;;;;5048319;28;23649;-58
2022/04/08 08:36:04;;;;;;;14.57;11.10;;;14.80;61.20;;;;;;5041694;28;20400;-59
2022/04/08 08:38:36;;;;;;;14.32;11.98;;;14.70;61.40;;;;;;5040887;28;20127;-59
2022/04/08 08:41:03;;;;;;;15.52;11.77;;;14.70;62.00;;;;;;5046960;28;20162;-58
2022/04/08 08:43:29;;;;;;;15.80;11.88;;;14.70;62.20;;;;;;5040056;28;20020;-59
2022/04/08 08:45:56;;;;;;;15.10;11.68;;;14.70;62.50;;;;;;5040479;28;20618;-59
2022/04/08 08:48:24;;;;;;;15.25;11.43;;;14.70;62.70;;;;;;5043170;28;20067;-59
2022/04/08 08:50:54;;;;;;;12.85;11.48;;;14.80;62.90;;;;;;5038282;28;20106;-59
2022/04/08 08:53:22;;;;;;;12.38;10.25;;;14.80;63.10;;;;;;5039199;28;20389;-60
2022/04/08 08:55:49;;;;;;;16.17;13.40;;;14.80;63.40;;;;;;5038414;28;20122;-58
2022/04/08 08:58:17;;;;;;;15.35;12.88;;;14.80;63.50;;;;;;5040897;28;20029;-59
2022/04/08 09:00:43;;;;;;;13.73;11.88;;;14.70;63.90;;;;;;5039296;28;20032;-57
2022/04/08 09:03:10;;;;;;;14.02;12.10;;;14.60;64.10;;;;;;5042404;28;20431;-58
2022/04/08 09:05:44;;;;;;;14.52;11.70;;;14.50;64.40;;;;;;5022291;28;20032;-59
2022/04/08 09:08:13;;;;;;;14.32;12.07;;;14.50;64.90;;;;;;5045954;28;20074;-58
2022/04/08 09:10:48;;;;;;;12.70;11.00;;;14.40;65.20;;;;;;5042329;28;20078;-63
2022/04/08 09:13:22;;;;;;;12.88;11.50;;;14.40;65.50;;;;;;5043316;28;20068;-59
2022/04/08 09:16:02;;;;;;;13.50;12.00;;;14.30;65.50;;;;;;5041613;28;20040;-61
2022/04/08 09:18:40;;;;;;;13.82;11.77;;;14.30;65.50;;;;;;5048145;28;20047;-59
2022/04/08 09:21:05;;;;;;;14.43;11.77;;;14.30;65.90;;;;;;5054289;28;20783;-58
2022/04/08 09:23:35;;;;;;;13.35;11.95;;;14.30;65.70;;;;;;5048390;28;20032;-58
2022/04/08 09:26:14;;;;;;;13.75;12.25;;;14.30;65.80;;;;;;5040598;28;20041;-59
2022/04/08 09:28:42;;;;;;;15.63;11.70;;;14.30;65.80;;;;;;5035529;28;20587;-59
2022/04/08 09:31:20;;;;;;;14.05;11.80;;;14.40;65.90;;;;;;5048069;28;20048;-59
2022/04/08 09:33:54;;;;;;;12.65;11.13;;;14.40;65.70;;;;;;5044465;28;20036;-59
2022/04/08 09:36:35;;;;;;;12.25;10.40;;;14.40;65.50;;;;;;5037503;28;20080;-59
2022/04/08 09:39:32;;;;;;;14.38;8.75;;;14.50;65.60;;;;;;5036628;28;20043;-59
2022/04/08 09:42:03;;;;;;;11.57;5.97;;;14.60;64.50;;;;;;5042113;28;20064;-58
2022/04/08 09:44:29;;;;;;;9.50;5.18;;;14.70;62.40;;;;;;5048457;28;20020;-59
2022/04/08 09:46:54;;;;;;;11.15;5.03;;;14.80;60.70;;;;;;5037599;28;20831;-59
2022/04/08 09:49:20;;;;;;;11.70;5.90;;;14.90;59.90;;;;;;5041718;28;20160;-59
2022/04/08 09:51:50;;;;;;;9.70;5.15;;;15.10;59.30;;;;;;5042141;28;20036;-59
2022/04/08 09:54:21;;;;;;;7.55;4.03;;;15.20;58.50;;;;;;5041489;28;20309;-59
2022/04/08 09:56:47;;;;;;;8.68;5.40;;;15.30;57.90;;;;;;5029671;28;20033;-59
2022/04/08 09:59:15;;;;;;;8.35;4.70;;;15.40;57.60;;;;;;5039529;28;20043;-59
2022/04/08 10:01:43;;;;;;;12.05;4.75;;;15.50;57.30;;;;;;5035981;28;20060;-59
2022/04/08 10:04:09;;;;;;;12.30;4.90;;;15.60;56.90;;;;;;5044662;28;20317;-59
2022/04/08 10:06:40;;;;;;;7.28;5.07;;;15.60;56.70;;;;;;5042493;28;20028;-59
2022/04/08 10:09:08;;;;;;;11.40;5.45;;;15.70;56.50;;;;;;5043070;28;20021;-59
2022/04/08 10:11:59;;;;;;;9.75;4.85;;;15.70;56.50;;;;;;5044973;28;20040;-59
2022/04/08 10:14:47;;;;;;;8.32;4.75;;;15.70;56.60;;;;;;5039082;28;20021;-59
2022/04/08 10:17:14;;;;;;;9.88;5.10;;;15.70;56.40;;;;;;5047805;28;20032;-58
2022/04/08 10:19:39;;;;;;;8.38;5.25;;;15.80;56.40;;;;;;5042312;28;20082;-59
2022/04/08 10:22:16;;;;;;;10.45;5.68;;;15.80;56.10;;;;;;5044295;28;20507;-58
2022/04/08 10:24:51;;;;;;;12.82;5.47;;;15.80;55.80;;;;;;5042368;28;20155;-59
2022/04/08 10:27:30;;;;;;;8.50;4.97;;;15.80;55.80;;;;;;5039796;28;20111;-58
2022/04/08 10:29:56;;;;;;;10.43;5.55;;;15.80;55.90;;;;;;5037070;28;20033;-59
2022/04/08 10:32:22;;;;;;;14.05;6.82;;;15.80;55.80;;;;;;5046227;28;20438;-59
2022/04/08 10:34:49;;;;;;;9.15;5.85;;;15.80;55.70;;;;;;5048487;28;20029;-59
2022/04/08 10:37:24;;;;;;;12.13;6.15;;;15.80;55.80;;;;;;5049032;28;20130;-59
2022/04/08 10:40:02;;;;;;;9.73;5.53;;;15.90;55.70;;;;;;5049565;28;20024;-58
2022/04/08 10:42:29;;;;;;;11.90;5.93;;;15.90;55.60;;;;;;5050294;28;20021;-59
2022/04/08 10:44:55;;;;;;;9.70;5.43;;;15.90;55.50;;;;;;5051349;28;20017;-59
2022/04/08 10:47:22;;;;;;;8.32;5.05;;;16.00;55.50;;;;;;5043373;28;20684;-59
2022/04/08 10:49:52;;;;;;;9.07;4.78;;;16.00;55.50;;;;;;5040124;28;20025;-61
2022/04/08 10:52:21;;;;;;;14.23;5.05;;;16.00;55.30;;;;;;5041937;28;20038;-61
2022/04/08 10:54:48;;;;;;;10.43;5.30;;;16.00;55.40;;;;;;5051666;28;20051;-59
2022/04/08 10:57:14;;;;;;;9.43;5.43;;;16.10;55.40;;;;;;5051707;28;20032;-59
2022/04/08 10:59:39;;;;;;;11.80;5.72;;;16.10;55.30;;;;;;5045543;28;20067;-59
2022/04/08 11:02:06;;;;;;;12.40;6.22;;;16.20;55.40;;;;;;5046500;28;20032;-59
2022/04/08 11:04:32;;;;;;;14.60;5.80;;;16.30;55.10;;;;;;5047874;28;20044;-59
2022/04/08 11:07:07;;;;;;;12.85;5.75;;;16.30;54.80;;;;;;5053697;28;20028;-59
2022/04/08 11:09:34;;;;;;;7.53;5.55;;;16.40;54.70;;;;;;5049979;28;20024;-59
2022/04/08 11:12:00;;;;;;;14.32;5.93;;;16.50;54.70;;;;;;5051977;28;20033;-59
2022/04/08 11:14:28;;;;;;;11.30;5.43;;;16.50;54.50;;;;;;5052537;28;20047;-59
2022/04/08 11:16:54;;;;;;;10.63;5.57;;;16.60;54.50;;;;;;5044008;28;20033;-59
2022/04/08 11:19:24;;;;;;;9.82;5.80;;;16.70;54.50;;;;;;5046762;28;20426;-60
2022/04/08 11:21:59;;;;;;;10.82;5.65;;;16.70;54.30;;;;;;5033377;28;20465;-59
2022/04/08 11:24:26;;;;;;;10.85;7.03;;;16.70;54.30;;;;;;5046315;28;20055;-59
2022/04/08 11:26:59;;;;;;;11.15;6.40;;;16.80;54.20;;;;;;5043926;28;20048;-60
2022/04/08 11:29:31;;;;;;;10.55;6.03;;;16.80;54.20;;;;;;5047606;28;20432;-60
2022/04/08 11:32:12;;;;;;;8.13;5.60;;;16.80;54.00;;;;;;5046639;28;20075;-61
2022/04/08 11:34:45;;;;;;;10.30;5.70;;;16.80;53.90;;;;;;5051982;28;20036;-60
2022/04/08 11:37:34;;;;;;;11.27;6.30;;;16.80;54.30;;;;;;5048877;28;20041;-60
2022/04/08 11:40:04;;;;;;;12.98;6.18;;;16.80;54.40;;;;;;5031943;28;20035;-60
2022/04/08 11:42:33;;;;;;;10.88;5.60;;;16.80;54.50;;;;;;5048512;28;20040;-60
2022/04/08 11:45:04;;;;;;;10.55;5.95;;;16.80;55.10;;;;;;5049351;28;20049;-60
2022/04/08 11:47:36;;;;;;;10.45;6.40;;;16.80;54.20;;;;;;5048090;28;20067;-59
2022/04/08 11:50:14;;;;;;;9.77;5.88;;;16.80;54.00;;;;;;5049133;28;21456;-59
2022/04/08 11:52:52;;;;;;;15.05;6.07;;;16.80;54.10;;;;;;5047759;28;20483;-61
2022/04/08 11:55:25;;;;;;;14.02;5.97;;;16.80;54.00;;;;;;5046863;28;20056;-59
2022/04/08 11:58:01;;;;;;;9.02;5.30;;;16.90;54.30;;;;;;5042457;28;20047;-60
2022/04/08 12:00:40;;;;;;;10.07;5.15;;;16.90;54.20;;;;;;5049131;28;20149;-59
2022/04/08 12:03:07;;;;;;;16.15;6.90;;;16.90;54.20;;;;;;5049310;28;20041;-59
2022/04/08 12:05:34;;;;;;;10.88;5.63;;;16.90;54.00;;;;;;5034969;28;20130;-59
2022/04/08 12:08:10;;;;;;;9.95;5.68;;;17.00;53.80;;;;;;5053418;28;20087;-60
2022/04/08 12:10:40;;;;;;;9.38;5.90;;;17.00;53.80;;;;;;5051152;28;20028;-60
2022/04/08 12:13:35;;;;;;;10.93;6.13;;;17.00;54.10;;;;;;5045984;28;20162;-59
2022/04/08 12:16:00;;;;;;;11.73;5.82;;;17.10;54.00;;;;;;5052306;28;20548;-59
2022/04/08 12:18:33;;;;;;;9.23;6.13;;;17.10;53.90;;;;;;5055860;28;20040;-60
2022/04/08 12:21:30;;;;;;;10.45;6.15;;;17.10;53.80;;;;;;5052566;28;20044;-59
2022/04/08 12:24:17;;;;;;;9.23;6.07;;;17.20;53.70;;;;;;5047443;28;20067;-59
2022/04/08 12:26:42;;;;;;;10.65;5.47;;;17.20;54.00;;;;;;5049383;28;20379;-59
2022/04/08 12:29:21;;;;;;;10.23;6.30;;;17.20;54.00;;;;;;5049285;28;20048;-59
2022/04/08 12:31:55;;;;;;;9.45;6.10;;;17.30;53.70;;;;;;5055293;28;20059;-59
2022/04/08 12:34:25;;;;;;;9.82;5.45;;;17.30;53.60;;;;;;5055467;28;20163;-60
2022/04/08 12:36:51;;;;;;;11.93;5.70;;;17.40;53.50;;;;;;5040552;28;20040;-60
2022/04/08 12:39:17;;;;;;;11.40;5.80;;;17.40;53.40;;;;;;5054403;28;20036;-60
2022/04/08 12:41:47;;;;;;;9.38;4.78;;;17.50;53.40;;;;;;5049826;28;20052;-59
2022/04/08 12:44:14;;;;;;;17.52;5.25;;;17.50;53.00;;;;;;5051541;28;20048;-59
2022/04/08 12:46:41;;;;;;;9.02;5.18;;;17.60;52.80;;;;;;5048982;28;20037;-61